sensor_id;sensor_type;location;lat;lon;timestamp;pressure;altitude;pressure_sealevel;temperature;humidity
5595;BME280;1003;48.002;7.788;2023-02-23T00:01:25;99807.41;;;9.78;100.00
5595;BME280;1003;48.002;7.788;2023-02-23T00:03:55;99807.41;;;9.78;100.00
5595;BME280;1003;48.002;7.788;2023-02-23T00:06:24;99807.47;;;9.86;100.00
5595;BME280;1003;48.002;7.788;2023-02-23T00:08:52;99807.41;;;9.78;100.00
5595;BME280;1003;48.002;7.788;2023-02-23T00:11:21;99800.75;;;9.80;100.00
5595;BME280;1003;48.002;7.788;2023-02-23T00:13:49;99795.69;;;9.77;100.00
5595;BME280;1003;48.002;7.788;2023-02-23T00:16:20;99792.34;;;9.70;100.00
5595;BME280;1003;48.002;7.788;2023-02-23T00:18:49;99789.00;;;9.71;100.00
5595;BME280;1003;48.002;7.788;2023-02-23T00:21:20;99785.63;;;9.68;100.00
5595;BME280;1003;48.002;7.788;2023-02-23T00:23:50;99783.13;;;9.65;100.00
5595;BME280;1003;48.002;7.788;2023-02-23T00:26:19;99779.75;;;9.61;100.00
5595;BME280;1003;48.002;7.788;2023-02-23T00:28:48;99778.13;;;9.71;100.00
5595;BME280;1003;48.002;7.788;2023-02-23T00:31:16;99781.47;;;9.71;100.00
5595;BME280;1003;48.002;7.788;2023-02-23T00:33:43;99772.25;;;9.64;100.00
5595;BME280;1003;48.002;7.788;2023-02-23T00:36:13;99784.81;;;9.77;100.00
5595;BME280;1003;48.002;7.788;2023-02-23T00:38:40;99776.41;;;9.68;100.00
5595;BME280;1003;48.002;7.788;2023-02-23T00:41:11;99775.59;;;9.63;100.00
5595;BME280;1003;48.002;7.788;2023-02-23T00:43:40;99779.75;;;9.63;100.00
5595;BME280;1003;48.002;7.788;2023-02-23T00:46:15;99773.06;;;9.59;100.00
5595;BME280;1003;48.002;7.788;2023-02-23T00:48:44;99782.25;;;9.57;100.00
5595;BME280;1003;48.002;7.788;2023-02-23T00:51:12;99784.72;;;9.51;100.00
5595;BME280;1003;48.002;7.788;2023-02-23T00:53:40;99768.84;;;9.52;100.00
5595;BME280;1003;48.002;7.788;2023-02-23T00:56:09;99776.41;;;9.53;100.00
5595;BME280;1003;48.002;7.788;2023-02-23T00:58:37;99777.22;;;9.54;100.00
5595;BME280;1003;48.002;7.788;2023-02-23T01:01:05;99783.94;;;9.61;100.00
5595;BME280;1003;48.002;7.788;2023-02-23T01:03:34;99783.94;;;9.59;100.00
5595;BME280;1003;48.002;7.788;2023-02-23T01:06:07;99778.09;;;9.60;100.00
5595;BME280;1003;48.002;7.788;2023-02-23T01:08:40;99781.44;;;9.65;100.00
5595;BME280;1003;48.002;7.788;2023-02-23T01:11:10;99783.13;;;9.72;100.00
5595;BME280;1003;48.002;7.788;2023-02-23T01:13:39;99773.91;;;9.67;100.00
5595;BME280;1003;48.002;7.788;2023-02-23T01:16:09;99779.00;;;9.87;100.00
5595;BME280;1003;48.002;7.788;2023-02-23T01:18:40;99775.63;;;9.77;100.00
5595;BME280;1003;48.002;7.788;2023-02-23T01:21:15;99768.06;;;9.68;100.00
5595;BME280;1003;48.002;7.788;2023-02-23T01:23:43;99758.84;;;9.61;100.00
5595;BME280;1003;48.002;7.788;2023-02-23T01:26:15;99760.53;;;9.65;100.00
5595;BME280;1003;48.002;7.788;2023-02-23T01:28:48;99744.59;;;9.54;100.00
5595;BME280;1003;48.002;7.788;2023-02-23T01:31:15;99744.59;;;9.57;100.00
5595;BME280;1003;48.002;7.788;2023-02-23T01:33:43;99735.38;;;9.51;100.00
5595;BME280;1003;48.002;7.788;2023-02-23T01:36:11;99729.59;;;9.69;100.00
5595;BME280;1003;48.002;7.788;2023-02-23T01:38:39;99717.84;;;9.57;100.00
5595;BME280;1003;48.002;7.788;2023-02-23T01:41:06;99704.41;;;9.46;100.00
5595;BME280;1003;48.002;7.788;2023-02-23T01:43:34;99706.09;;;9.39;100.00
5595;BME280;1003;48.002;7.788;2023-02-23T01:46:02;99703.56;;;9.33;100.00
5595;BME280;1003;48.002;7.788;2023-02-23T01:48:35;99696.06;;;9.44;100.00
5595;BME280;1003;48.002;7.788;2023-02-23T01:51:09;99693.59;;;9.53;100.00
5595;BME280;1003;48.002;7.788;2023-02-23T01:53:43;99690.22;;;9.48;100.00
5595;BME280;1003;48.002;7.788;2023-02-23T01:56:19;99675.13;;;9.40;100.00
5595;BME280;1003;48.002;7.788;2023-02-23T01:58:50;99673.50;;;9.53;100.00
5595;BME280;1003;48.002;7.788;2023-02-23T02:01:18;99669.31;;;9.52;100.00
5595;BME280;1003;48.002;7.788;2023-02-23T02:03:52;99655.94;;;9.52;100.00
5595;BME280;1003;48.002;7.788;2023-02-23T02:06:25;99653.44;;;9.47;100.00
5595;BME280;1003;48.002;7.788;2023-02-23T02:08:57;99639.19;;;9.43;100.00
5595;BME280;1003;48.002;7.788;2023-02-23T02:11:26;99631.66;;;9.38;100.00
5595;BME280;1003;48.002;7.788;2023-02-23T02:14:05;99623.28;;;9.39;100.00
5595;BME280;1003;48.002;7.788;2023-02-23T02:17:12;99615.78;;;9.52;100.00
5595;BME280;1003;48.002;7.788;2023-02-23T02:26:52;99595.72;;;9.61;100.00
5595;BME280;1003;48.002;7.788;2023-02-23T02:29:52;99585.69;;;9.59;100.00
5595;BME280;1003;48.002;7.788;2023-02-23T02:33:03;99569.81;;;9.59;100.00
5595;BME280;1003;48.002;7.788;2023-02-23T02:36:06;99574.81;;;9.60;100.00
5595;BME280;1003;48.002;7.788;2023-02-23T02:38:54;99575.63;;;9.61;100.00
5595;BME280;1003;48.002;7.788;2023-02-23T02:41:33;99562.25;;;9.57;100.00
5595;BME280;1003;48.002;7.788;2023-02-23T02:44:10;99562.28;;;9.59;100.00
5595;BME280;1003;48.002;7.788;2023-02-23T02:46:46;99555.56;;;9.59;100.00
5595;BME280;1003;48.002;7.788;2023-02-23T02:49:25;99556.41;;;9.61;100.00
5595;BME280;1003;48.002;7.788;2023-02-23T02:52:00;99551.38;;;9.60;100.00
5595;BME280;1003;48.002;7.788;2023-02-23T02:54:37;99547.19;;;9.60;100.00
5595;BME280;1003;48.002;7.788;2023-02-23T02:57:06;99549.72;;;9.59;100.00
5595;BME280;1003;48.002;7.788;2023-02-23T02:59:43;99538.84;;;9.54;100.00
5595;BME280;1003;48.002;7.788;2023-02-23T03:02:28;99536.31;;;9.46;100.00
5595;BME280;1003;48.002;7.788;2023-02-23T03:05:18;99544.69;;;9.51;100.00
5595;BME280;1003;48.002;7.788;2023-02-23T03:08:12;99537.16;;;9.51;100.00
5595;BME280;1003;48.002;7.788;2023-02-23T03:11:05;99531.31;;;9.41;100.00
5595;BME280;1003;48.002;7.788;2023-02-23T03:14:10;99533.84;;;9.37;100.00
5595;BME280;1003;48.002;7.788;2023-02-23T03:17:06;99526.31;;;9.32;100.00
5595;BME280;1003;48.002;7.788;2023-02-23T03:20:04;99517.09;;;9.30;100.00
5595;BME280;1003;48.002;7.788;2023-02-23T03:22:59;99527.97;;;9.29;100.00
5595;BME280;1003;48.002;7.788;2023-02-23T03:25:58;99524.63;;;9.24;100.00
5595;BME280;1003;48.002;7.788;2023-02-23T03:28:56;99522.13;;;9.20;100.00
5595;BME280;1003;48.002;7.788;2023-02-23T03:31:48;99522.94;;;9.18;100.00
5595;BME280;1003;48.002;7.788;2023-02-23T03:34:43;99522.09;;;9.16;100.00
5595;BME280;1003;48.002;7.788;2023-02-23T03:37:36;99517.09;;;9.11;100.00
5595;BME280;1003;48.002;7.788;2023-02-23T03:40:27;99528.78;;;9.14;100.00
5595;BME280;1003;48.002;7.788;2023-02-23T03:43:17;99525.44;;;9.13;100.00
5595;BME280;1003;48.002;7.788;2023-02-23T03:46:09;99532.94;;;9.07;100.00
5595;BME280;1003;48.002;7.788;2023-02-23T03:48:58;99532.09;;;9.08;100.00
5595;BME280;1003;48.002;7.788;2023-02-23T03:51:50;99536.31;;;9.05;100.00
5595;BME280;1003;48.002;7.788;2023-02-23T03:54:44;99535.44;;;8.98;100.00
5595;BME280;1003;48.002;7.788;2023-02-23T03:57:31;99539.59;;;8.85;100.00
5595;BME280;1003;48.002;7.788;2023-02-23T04:00:24;99550.47;;;8.83;100.00
5595;BME280;1003;48.002;7.788;2023-02-23T04:03:16;99547.06;;;8.68;100.00
5595;BME280;1003;48.002;7.788;2023-02-23T04:06:03;99559.59;;;8.72;100.00
5595;BME280;1003;48.002;7.788;2023-02-23T04:08:50;99561.31;;;8.79;100.00
5595;BME280;1003;48.002;7.788;2023-02-23T04:11:45;99574.66;;;8.75;100.00
5595;BME280;1003;48.002;7.788;2023-02-23T04:14:37;99567.13;;;8.68;100.00
5595;BME280;1003;48.002;7.788;2023-02-23T04:17:08;99567.09;;;8.62;100.00
5595;BME280;1003;48.002;7.788;2023-02-23T04:19:35;99583.78;;;8.59;100.00
5595;BME280;1003;48.002;7.788;2023-02-23T04:22:02;99578.72;;;8.53;100.00
5595;BME280;1003;48.002;7.788;2023-02-23T04:24:29;99582.06;;;8.47;100.00
5595;BME280;1003;48.002;7.788;2023-02-23T04:26:56;99572.81;;;8.38;100.00
5595;BME280;1003;48.002;7.788;2023-02-23T04:29:23;99584.44;;;8.30;100.00
5595;BME280;1003;48.002;7.788;2023-02-23T04:31:50;99578.53;;;8.22;100.00
5595;BME280;1003;48.002;7.788;2023-02-23T04:34:18;99583.53;;;8.19;100.00
5595;BME280;1003;48.002;7.788;2023-02-23T04:36:47;99593.53;;;8.18;100.00
5595;BME280;1003;48.002;7.788;2023-02-23T04:39:15;99593.53;;;8.18;100.00
5595;BME280;1003;48.002;7.788;2023-02-23T04:41:42;99598.50;;;8.08;100.00
5595;BME280;1003;48.002;7.788;2023-02-23T04:44:09;99601.84;;;8.09;100.00
5595;BME280;1003;48.002;7.788;2023-02-23T04:46:36;99593.53;;;8.14;100.00
5595;BME280;1003;48.002;7.788;2023-02-23T04:49:03;99600.19;;;8.15;100.00
5595;BME280;1003;48.002;7.788;2023-02-23T04:51:30;99611.00;;;8.11;100.00
5595;BME280;1003;48.002;7.788;2023-02-23T04:54:00;99611.84;;;8.12;100.00
5595;BME280;1003;48.002;7.788;2023-02-23T04:56:27;99615.22;;;8.15;100.00
5595;BME280;1003;48.002;7.788;2023-02-23T04:58:54;99621.94;;;8.18;100.00
5595;BME280;1003;48.002;7.788;2023-02-23T05:01:21;99625.28;;;8.22;100.00
5595;BME280;1003;48.002;7.788;2023-02-23T05:03:49;99627.78;;;8.23;100.00
5595;BME280;1003;48.002;7.788;2023-02-23T05:06:16;99637.84;;;8.28;100.00
5595;BME280;1003;48.002;7.788;2023-02-23T05:08:44;99645.38;;;8.32;100.00
5595;BME280;1003;48.002;7.788;2023-02-23T05:11:12;99649.63;;;8.36;100.00
5595;BME280;1003;48.002;7.788;2023-02-23T05:13:39;99659.66;;;8.41;100.00
5595;BME280;1003;48.002;7.788;2023-02-23T05:16:07;99669.72;;;8.46;100.00
5595;BME280;1003;48.002;7.788;2023-02-23T05:18:34;99677.28;;;8.53;100.00
5595;BME280;1003;48.002;7.788;2023-02-23T05:21:03;99675.59;;;8.55;100.00
5595;BME280;1003;48.002;7.788;2023-02-23T05:23:30;99673.09;;;8.55;100.00
5595;BME280;1003;48.002;7.788;2023-02-23T05:26:01;99681.47;;;8.56;100.00
5595;BME280;1003;48.002;7.788;2023-02-23T05:28:33;99683.16;;;8.57;100.00
5595;BME280;1003;48.002;7.788;2023-02-23T05:31:01;99678.94;;;8.54;100.00
5595;BME280;1003;48.002;7.788;2023-02-23T05:33:29;99682.28;;;8.52;100.00
5595;BME280;1003;48.002;7.788;2023-02-23T05:35:56;99690.63;;;8.52;100.00
5595;BME280;1003;48.002;7.788;2023-02-23T05:38:24;99686.47;;;8.54;100.00
5595;BME280;1003;48.002;7.788;2023-02-23T05:40:52;99698.19;;;8.57;100.00
5595;BME280;1003;48.002;7.788;2023-02-23T05:43:19;99704.88;;;8.59;100.00
5595;BME280;1003;48.002;7.788;2023-02-23T05:45:47;99695.69;;;8.58;100.00
5595;BME280;1003;48.002;7.788;2023-02-23T05:48:14;99703.19;;;8.57;100.00
5595;BME280;1003;48.002;7.788;2023-02-23T05:50:41;99698.97;;;8.53;100.00
5595;BME280;1003;48.002;7.788;2023-02-23T05:53:08;99696.44;;;8.47;100.00
5595;BME280;1003;48.002;7.788;2023-02-23T05:55:35;99698.03;;;8.38;100.00
5595;BME280;1003;48.002;7.788;2023-02-23T05:58:03;99704.72;;;8.36;100.00
5595;BME280;1003;48.002;7.788;2023-02-23T06:00:30;99713.78;;;8.25;100.00
5595;BME280;1003;48.002;7.788;2023-02-23T06:02:58;99707.91;;;8.23;100.00
5595;BME280;1003;48.002;7.788;2023-02-23T06:05:25;99706.22;;;8.19;100.00
5595;BME280;1003;48.002;7.788;2023-02-23T06:07:53;99712.91;;;8.19;100.00
5595;BME280;1003;48.002;7.788;2023-02-23T06:10:20;99714.53;;;8.15;100.00
5595;BME280;1003;48.002;7.788;2023-02-23T06:12:47;99722.03;;;8.15;100.00
5595;BME280;1003;48.002;7.788;2023-02-23T06:15:14;99719.53;;;8.15;100.00
5595;BME280;1003;48.002;7.788;2023-02-23T06:17:41;99732.06;;;8.15;100.00
5595;BME280;1003;48.002;7.788;2023-02-23T06:20:11;99737.91;;;8.15;100.00
5595;BME280;1003;48.002;7.788;2023-02-23T06:22:39;99742.91;;;8.17;100.00
5595;BME280;1003;48.002;7.788;2023-02-23T06:25:07;99746.25;;;8.18;100.00
5595;BME280;1003;48.002;7.788;2023-02-23T06:27:37;99752.16;;;8.23;100.00
5595;BME280;1003;48.002;7.788;2023-02-23T06:30:06;99767.22;;;8.27;100.00
5595;BME280;1003;48.002;7.788;2023-02-23T06:32:33;99773.91;;;8.28;100.00
5595;BME280;1003;48.002;7.788;2023-02-23T06:35:00;99781.41;;;8.27;100.00
5595;BME280;1003;48.002;7.788;2023-02-23T06:37:29;99784.78;;;8.33;100.00
5595;BME280;1003;48.002;7.788;2023-02-23T06:39:57;99791.47;;;8.30;100.00
5595;BME280;1003;48.002;7.788;2023-02-23T06:42:24;99799.88;;;8.36;100.00
5595;BME280;1003;48.002;7.788;2023-02-23T06:44:51;99802.41;;;8.38;100.00
5595;BME280;1003;48.002;7.788;2023-02-23T06:47:18;99804.78;;;8.24;100.00
5595;BME280;1003;48.002;7.788;2023-02-23T06:49:45;99802.28;;;8.26;100.00
5595;BME280;1003;48.002;7.788;2023-02-23T06:52:14;99806.50;;;8.31;100.00
5595;BME280;1003;48.002;7.788;2023-02-23T06:54:43;99821.59;;;8.36;100.00
5595;BME280;1003;48.002;7.788;2023-02-23T06:57:10;99826.66;;;8.42;100.00
5595;BME280;1003;48.002;7.788;2023-02-23T06:59:38;99830.88;;;8.49;100.00
5595;BME280;1003;48.002;7.788;2023-02-23T07:02:05;99841.00;;;8.57;100.00
5595;BME280;1003;48.002;7.788;2023-02-23T07:04:32;99846.91;;;8.65;100.00
5595;BME280;1003;48.002;7.788;2023-02-23T07:06:59;99861.19;;;8.74;100.00
5595;BME280;1003;48.002;7.788;2023-02-23T07:09:27;99871.28;;;8.84;100.00
5595;BME280;1003;48.002;7.788;2023-02-23T07:11:55;99887.25;;;8.94;100.00
5595;BME280;1003;48.002;7.788;2023-02-23T07:14:23;99900.69;;;9.04;100.00
5595;BME280;1003;48.002;7.788;2023-02-23T07:16:50;99901.59;;;9.13;100.00
5595;BME280;1003;48.002;7.788;2023-02-23T07:19:17;99914.19;;;9.21;100.00
5595;BME280;1003;48.002;7.788;2023-02-23T07:21:44;99917.53;;;9.22;100.00
5595;BME280;1003;48.002;7.788;2023-02-23T07:24:11;99930.09;;;9.23;100.00
5595;BME280;1003;48.002;7.788;2023-02-23T07:26:38;99930.06;;;9.18;100.00
5595;BME280;1003;48.002;7.788;2023-02-23T07:29:10;99936.81;;;9.26;100.00
5595;BME280;1003;48.002;7.788;2023-02-23T07:31:39;99951.06;;;9.36;100.00
5595;BME280;1003;48.002;7.788;2023-02-23T07:34:07;99961.22;;;9.48;100.00
5595;BME280;1003;48.002;7.788;2023-02-23T07:36:35;99975.50;;;9.58;100.00
5595;BME280;1003;48.002;7.788;2023-02-23T07:39:03;99982.25;;;9.67;100.00
5595;BME280;1003;48.002;7.788;2023-02-23T07:41:30;99978.03;;;9.58;100.00
5595;BME280;1003;48.002;7.788;2023-02-23T07:43:58;99978.00;;;9.57;100.00
5595;BME280;1003;48.002;7.788;2023-02-23T07:46:27;99996.44;;;9.62;100.00
5595;BME280;1003;48.002;7.788;2023-02-23T07:48:54;100002.34;;;9.71;100.00
5595;BME280;1003;48.002;7.788;2023-02-23T07:51:21;100009.09;;;9.77;100.00
5595;BME280;1003;48.002;7.788;2023-02-23T07:53:48;100007.38;;;9.71;100.00
5595;BME280;1003;48.002;7.788;2023-02-23T07:56:15;100005.72;;;9.72;100.00
5595;BME280;1003;48.002;7.788;2023-02-23T07:58:43;100017.50;;;9.81;100.00
5595;BME280;1003;48.002;7.788;2023-02-23T08:01:11;100027.56;;;9.87;100.00
5595;BME280;1003;48.002;7.788;2023-02-23T08:03:40;100028.41;;;9.89;100.00
5595;BME280;1003;48.002;7.788;2023-02-23T08:06:14;100025.06;;;9.85;100.00
5595;BME280;1003;48.002;7.788;2023-02-23T08:08:42;100030.19;;;10.02;100.00
5595;BME280;1003;48.002;7.788;2023-02-23T08:11:10;100031.03;;;10.01;100.00
5595;BME280;1003;48.002;7.788;2023-02-23T08:13:37;100028.53;;;10.07;100.00
5595;BME280;1003;48.002;7.788;2023-02-23T08:16:05;100029.38;;;10.08;100.00
5595;BME280;1003;48.002;7.788;2023-02-23T08:18:32;100028.56;;;10.13;100.00
5595;BME280;1003;48.002;7.788;2023-02-23T08:21:02;100026.06;;;10.16;100.00
5595;BME280;1003;48.002;7.788;2023-02-23T08:23:30;100030.25;;;10.20;100.00
5595;BME280;1003;48.002;7.788;2023-02-23T08:25:57;100019.44;;;10.28;100.00
5595;BME280;1003;48.002;7.788;2023-02-23T08:28:26;100015.28;;;10.37;100.00
5595;BME280;1003;48.002;7.788;2023-02-23T08:30:53;100019.53;;;10.46;100.00
5595;BME280;1003;48.002;7.788;2023-02-23T08:33:20;100023.75;;;10.58;100.00
5595;BME280;1003;48.002;7.788;2023-02-23T08:35:47;100025.47;;;10.69;100.00
5595;BME280;1003;48.002;7.788;2023-02-23T08:38:16;100027.22;;;10.96;100.00
5595;BME280;1003;48.002;7.788;2023-02-23T08:40:43;100031.44;;;11.13;100.00
5595;BME280;1003;48.002;7.788;2023-02-23T08:43:10;100024.75;;;11.38;100.00
5595;BME280;1003;48.002;7.788;2023-02-23T08:45:37;100012.97;;;11.61;100.00
5595;BME280;1003;48.002;7.788;2023-02-23T08:48:05;100003.72;;;11.77;100.00
5595;BME280;1003;48.002;7.788;2023-02-23T08:50:32;99977.69;;;11.96;100.00
5595;BME280;1003;48.002;7.788;2023-02-23T08:52:59;99957.50;;;12.12;100.00
5595;BME280;1003;48.002;7.788;2023-02-23T08:55:27;99938.88;;;12.39;100.00
5595;BME280;1003;48.002;7.788;2023-02-23T08:57:55;99908.56;;;12.46;100.00
5595;BME280;1003;48.002;7.788;2023-02-23T09:00:22;99859.88;;;12.37;100.00
5595;BME280;1003;48.002;7.788;2023-02-23T09:02:50;99838.59;;;12.74;100.00
5595;BME280;1003;48.002;7.788;2023-02-23T09:05:17;99798.09;;;12.90;100.00
5595;BME280;1003;48.002;7.788;2023-02-23T09:07:45;99750.88;;;13.04;100.00
5595;BME280;1003;48.002;7.788;2023-02-23T09:10:17;99709.41;;;13.26;100.00
5595;BME280;1003;48.002;7.788;2023-02-23T09:12:46;99647.88;;;13.33;100.00
5595;BME280;1003;48.002;7.788;2023-02-23T09:15:13;99576.63;;;13.11;100.00
5595;BME280;1003;48.002;7.788;2023-02-23T09:17:40;99515.69;;;13.37;100.00
5595;BME280;1003;48.002;7.788;2023-02-23T09:20:11;99464.88;;;13.56;100.00
5595;BME280;1003;48.002;7.788;2023-02-23T09:22:40;99399.38;;;13.47;100.00
5595;BME280;1003;48.002;7.788;2023-02-23T09:25:13;99349.75;;;13.46;100.00
5595;BME280;1003;48.002;7.788;2023-02-23T09:27:43;99332.88;;;13.89;100.00
5595;BME280;1003;48.002;7.788;2023-02-23T09:30:13;99278.81;;;13.97;100.00
5595;BME280;1003;48.002;7.788;2023-02-23T09:32:43;99245.50;;;14.15;100.00
5595;BME280;1003;48.002;7.788;2023-02-23T09:35:11;99240.19;;;14.26;100.00
5595;BME280;1003;48.002;7.788;2023-02-23T09:37:39;99260.31;;;14.66;100.00
5595;BME280;1003;48.002;7.788;2023-02-23T09:40:09;99227.06;;;14.47;100.00
5595;BME280;1003;48.002;7.788;2023-02-23T09:42:43;99215.00;;;13.87;100.00
5595;BME280;1003;48.002;7.788;2023-02-23T09:45:27;99204.00;;;13.89;100.00
5595;BME280;1003;48.002;7.788;2023-02-23T09:48:10;99199.88;;;14.21;100.00
5595;BME280;1003;48.002;7.788;2023-02-23T09:50:41;99183.09;;;14.18;100.00
5595;BME280;1003;48.002;7.788;2023-02-23T09:53:31;99179.09;;;14.10;100.00
5595;BME280;1003;48.002;7.788;2023-02-23T09:55:59;99162.13;;;13.79;100.00
5595;BME280;1003;48.002;7.788;2023-02-23T09:58:32;99188.75;;;13.94;100.00
5595;BME280;1003;48.002;7.788;2023-02-23T10:04:27;99176.09;;;14.93;100.00
5595;BME280;1003;48.002;7.788;2023-02-23T10:07:05;99154.81;;;14.37;100.00
5595;BME280;1003;48.002;7.788;2023-02-23T10:09:54;99139.56;;;13.73;100.00
5595;BME280;1003;48.002;7.788;2023-02-23T10:12:32;99158.38;;;13.96;100.00
5595;BME280;1003;48.002;7.788;2023-02-23T10:15:15;99139.97;;;13.90;100.00
5595;BME280;1003;48.002;7.788;2023-02-23T10:17:59;99162.63;;;14.28;100.00
5595;BME280;1003;48.002;7.788;2023-02-23T10:20:41;99145.47;;;15.01;100.00
5595;BME280;1003;48.002;7.788;2023-02-23T10:23:17;99135.81;;;15.15;100.00
5595;BME280;1003;48.002;7.788;2023-02-23T10:25:49;99102.50;;;15.28;100.00
5595;BME280;1003;48.002;7.788;2023-02-23T10:28:20;99042.97;;;15.42;100.00
5595;BME280;1003;48.002;7.788;2023-02-23T10:30:50;99005.09;;;15.39;100.00
5595;BME280;1003;48.002;7.788;2023-02-23T10:33:27;98952.06;;;15.35;100.00
5595;BME280;1003;48.002;7.788;2023-02-23T10:36:12;98950.63;;;16.01;100.00
5595;BME280;1003;48.002;7.788;2023-02-23T10:38:41;98921.88;;;16.24;100.00
5595;BME280;1003;48.002;7.788;2023-02-23T10:41:09;98893.31;;;16.20;100.00
5595;BME280;1003;48.002;7.788;2023-02-23T10:43:38;98883.75;;;16.27;100.00
5595;BME280;1003;48.002;7.788;2023-02-23T10:46:11;98885.03;;;16.15;100.00
5595;BME280;1003;48.002;7.788;2023-02-23T10:48:46;98834.78;;;16.25;100.00
5595;BME280;1003;48.002;7.788;2023-02-23T10:51:19;98824.84;;;16.20;100.00
5595;BME280;1003;48.002;7.788;2023-02-23T10:53:47;98826.19;;;16.07;100.00
5595;BME280;1003;48.002;7.788;2023-02-23T10:56:18;98803.78;;;16.18;100.00
5595;BME280;1003;48.002;7.788;2023-02-23T10:58:48;98825.75;;;16.40;100.00
5595;BME280;1003;48.002;7.788;2023-02-23T11:01:32;98829.97;;;16.61;100.00
5595;BME280;1003;48.002;7.788;2023-02-23T11:04:15;98775.75;;;16.84;100.00
5595;BME280;1003;48.002;7.788;2023-02-23T11:06:44;98753.03;;;16.61;100.00
5595;BME280;1003;48.002;7.788;2023-02-23T11:09:23;98719.75;;;16.48;100.00
5595;BME280;1003;48.002;7.788;2023-02-23T11:11:56;98715.28;;;16.73;100.00
5595;BME280;1003;48.002;7.788;2023-02-23T11:14:25;98699.75;;;16.81;100.00
5595;BME280;1003;48.002;7.788;2023-02-23T11:16:55;98654.75;;;17.03;100.00
5595;BME280;1003;48.002;7.788;2023-02-23T11:19:32;98622.25;;;16.93;100.00
5595;BME280;1003;48.002;7.788;2023-02-23T11:22:03;98608.94;;;16.88;100.00
5595;BME280;1003;48.002;7.788;2023-02-23T11:24:35;98591.94;;;16.90;100.00
5595;BME280;1003;48.002;7.788;2023-02-23T11:27:05;98593.47;;;16.54;100.00
5595;BME280;1003;48.002;7.788;2023-02-23T11:29:36;98620.41;;;16.57;100.00
5595;BME280;1003;48.002;7.788;2023-02-23T11:32:08;98619.16;;;16.47;100.00
5595;BME280;1003;48.002;7.788;2023-02-23T11:34:39;98591.84;;;16.72;100.00
5595;BME280;1003;48.002;7.788;2023-02-23T11:37:19;98566.91;;;16.43;100.00
5595;BME280;1003;48.002;7.788;2023-02-23T11:39:54;98582.97;;;16.62;100.00
5595;BME280;1003;48.002;7.788;2023-02-23T11:42:24;98581.81;;;16.88;100.00
5595;BME280;1003;48.002;7.788;2023-02-23T11:45:04;98568.81;;;16.96;100.00
5595;BME280;1003;48.002;7.788;2023-02-23T11:47:33;98578.59;;;17.03;100.00
5595;BME280;1003;48.002;7.788;2023-02-23T11:50:10;98557.84;;;16.76;100.00
5595;BME280;1003;48.002;7.788;2023-02-23T11:52:47;98551.84;;;16.59;100.00
5595;BME280;1003;48.002;7.788;2023-02-23T11:55:17;98552.84;;;16.75;100.00
5595;BME280;1003;48.002;7.788;2023-02-23T11:57:45;98523.31;;;16.72;100.00
5595;BME280;1003;48.002;7.788;2023-02-23T12:00:25;98527.22;;;16.61;100.00
5595;BME280;1003;48.002;7.788;2023-02-23T12:02:57;98541.75;;;16.38;100.00
5595;BME280;1003;48.002;7.788;2023-02-23T12:05:29;98579.28;;;16.30;100.00
5595;BME280;1003;48.002;7.788;2023-02-23T12:08:03;98576.00;;;16.28;100.00
5595;BME280;1003;48.002;7.788;2023-02-23T12:10:38;98555.69;;;16.48;100.00
5595;BME280;1003;48.002;7.788;2023-02-23T12:13:24;98539.44;;;16.13;100.00
5595;BME280;1003;48.002;7.788;2023-02-23T12:15:59;98519.81;;;16.37;100.00
5595;BME280;1003;48.002;7.788;2023-02-23T12:18:43;98526.28;;;16.63;100.00
5595;BME280;1003;48.002;7.788;2023-02-23T12:21:26;98494.66;;;16.51;100.00
5595;BME280;1003;48.002;7.788;2023-02-23T12:24:14;98471.28;;;16.45;100.00
5595;BME280;1003;48.002;7.788;2023-02-23T12:26:49;98471.13;;;16.67;100.00
5595;BME280;1003;48.002;7.788;2023-02-23T12:29:26;98482.31;;;16.82;100.00
5595;BME280;1003;48.002;7.788;2023-02-23T12:32:00;98437.53;;;16.62;100.00
5595;BME280;1003;48.002;7.788;2023-02-23T12:34:37;98432.75;;;17.09;100.00
5595;BME280;1003;48.002;7.788;2023-02-23T12:37:26;98425.72;;;17.31;100.00
5595;BME280;1003;48.002;7.788;2023-02-23T12:40:03;98390.75;;;17.70;100.00
5595;BME280;1003;48.002;7.788;2023-02-23T12:42:44;98326.44;;;17.36;100.00
5595;BME280;1003;48.002;7.788;2023-02-23T12:45:22;98328.78;;;17.56;100.00
5595;BME280;1003;48.002;7.788;2023-02-23T12:48:02;98314.19;;;17.27;100.00
5595;BME280;1003;48.002;7.788;2023-02-23T12:50:36;98294.19;;;17.38;100.00
5595;BME280;1003;48.002;7.788;2023-02-23T12:53:17;98292.53;;;17.69;100.00
5595;BME280;1003;48.002;7.788;2023-02-23T12:56:03;98289.78;;;17.73;100.00
5595;BME280;1003;48.002;7.788;2023-02-23T12:58:40;98299.16;;;17.73;100.00
5595;BME280;1003;48.002;7.788;2023-02-23T13:01:15;98302.97;;;17.80;100.00
5595;BME280;1003;48.002;7.788;2023-02-23T13:07:50;98317.53;;;17.45;100.00
5595;BME280;1003;48.002;7.788;2023-02-23T13:10:38;98319.38;;;17.25;100.00
5595;BME280;1003;48.002;7.788;2023-02-23T13:13:24;98322.34;;;17.34;100.00
5595;BME280;1003;48.002;7.788;2023-02-23T13:16:07;98323.19;;;17.50;100.00
5595;BME280;1003;48.002;7.788;2023-02-23T13:18:44;98321.56;;;17.16;100.00
5595;BME280;1003;48.002;7.788;2023-02-23T13:21:19;98327.44;;;17.00;100.00
5595;BME280;1003;48.002;7.788;2023-02-23T13:23:58;98325.53;;;16.69;100.00
5595;BME280;1003;48.002;7.788;2023-02-23T13:26:38;98314.88;;;16.97;100.00
5595;BME280;1003;48.002;7.788;2023-02-23T13:29:27;98320.63;;;16.84;100.00
5595;BME280;1003;48.002;7.788;2023-02-23T13:32:00;98321.81;;;16.94;100.00
5595;BME280;1003;48.002;7.788;2023-02-23T13:34:32;98321.22;;;16.71;100.00
5595;BME280;1003;48.002;7.788;2023-02-23T13:37:05;98331.44;;;16.87;100.00
5595;BME280;1003;48.002;7.788;2023-02-23T13:40:01;98332.75;;;17.29;100.00
5595;BME280;1003;48.002;7.788;2023-02-23T13:42:47;98328.00;;;17.39;100.00
5595;BME280;1003;48.002;7.788;2023-02-23T13:45:42;98322.38;;;17.49;100.00
5595;BME280;1003;48.002;7.788;2023-02-23T13:48:27;98332.84;;;17.10;100.00
5595;BME280;1003;48.002;7.788;2023-02-23T13:51:02;98337.31;;;17.22;100.00
5595;BME280;1003;48.002;7.788;2023-02-23T13:53:41;98340.81;;;17.53;100.00
5595;BME280;1003;48.002;7.788;2023-02-23T13:56:14;98347.66;;;17.35;100.00
5595;BME280;1003;48.002;7.788;2023-02-23T13:58:50;98348.28;;;17.23;100.00
5595;BME280;1003;48.002;7.788;2023-02-23T14:01:21;98356.38;;;17.14;100.00
5595;BME280;1003;48.002;7.788;2023-02-23T14:03:55;98355.47;;;17.15;100.00
5595;BME280;1003;48.002;7.788;2023-02-23T14:06:26;98359.09;;;17.26;100.00